createdAt,value
2023-04-23T00:02:06.585Z,4.61
2023-04-23T00:04:38.505Z,4.60
2023-04-23T00:07:07.226Z,4.59
2023-04-23T00:09:36.117Z,4.60
2023-04-23T00:12:04.806Z,4.61
2023-04-23T00:14:33.395Z,4.62
2023-04-23T00:17:01.561Z,4.64
2023-04-23T00:19:29.555Z,4.65
2023-04-23T00:21:57.921Z,4.67
2023-04-23T00:24:26.394Z,4.67
2023-04-23T00:26:54.521Z,4.68
2023-04-23T00:29:23.049Z,4.68
2023-04-23T00:31:51.372Z,4.69
2023-04-23T00:34:19.911Z,4.70
2023-04-23T00:36:51.380Z,4.71
2023-04-23T00:39:19.638Z,4.72
2023-04-23T00:41:51.707Z,4.74
2023-04-23T00:44:20.104Z,4.77
2023-04-23T00:46:48.464Z,4.80
2023-04-23T00:49:18.378Z,4.82
2023-04-23T00:51:47.475Z,4.84
2023-04-23T00:54:15.696Z,4.87
2023-04-23T00:56:43.822Z,4.90
2023-04-23T00:59:12.097Z,4.94
2023-04-23T01:01:41.134Z,4.97
2023-04-23T01:04:09.812Z,5.01
2023-04-23T01:06:39.600Z,5.05
2023-04-23T01:09:10.121Z,5.09
2023-04-23T01:11:43.426Z,5.13
2023-04-23T01:14:12.413Z,5.17
2023-04-23T01:16:41.208Z,5.20
2023-04-23T01:19:11.009Z,5.22
2023-04-23T01:21:42.988Z,5.26
2023-04-23T01:24:11.981Z,5.30
2023-04-23T01:26:40.833Z,5.34
2023-04-23T01:29:10.588Z,5.39
2023-04-23T01:31:38.641Z,5.44
2023-04-23T01:34:08.150Z,5.46
2023-04-23T01:36:36.700Z,5.49
2023-04-23T01:39:05.827Z,5.53
2023-04-23T01:41:34.738Z,5.56
2023-04-23T01:44:02.996Z,5.58
2023-04-23T01:46:31.550Z,5.60
2023-04-23T01:49:00.276Z,5.62
2023-04-23T01:51:30.010Z,5.64
2023-04-23T01:53:58.155Z,5.64
2023-04-23T01:56:28.372Z,5.66
2023-04-23T01:58:57.062Z,5.67
2023-04-23T02:01:25.444Z,5.69
2023-04-23T02:03:54.624Z,5.69
2023-04-23T02:06:22.733Z,5.70
2023-04-23T02:08:51.725Z,5.71
2023-04-23T02:11:20.010Z,5.72
2023-04-23T02:13:48.280Z,5.72
2023-04-23T02:16:18.127Z,5.73
2023-04-23T02:18:46.452Z,5.73
2023-04-23T02:21:14.748Z,5.74
2023-04-23T02:23:43.018Z,5.75
2023-04-23T02:26:11.177Z,5.76
2023-04-23T02:28:39.167Z,5.77
2023-04-23T02:31:07.542Z,5.77
2023-04-23T02:33:35.801Z,5.78
2023-04-23T02:36:04.298Z,5.79
2023-04-23T02:38:32.372Z,5.80
2023-04-23T02:41:00.544Z,5.81
2023-04-23T02:43:29.320Z,5.82
2023-04-23T02:46:00.367Z,5.83
2023-04-23T02:48:29.894Z,5.83
2023-04-23T02:50:58.451Z,5.84
2023-04-23T02:53:26.654Z,5.88
2023-04-23T02:55:54.703Z,5.91
2023-04-23T02:58:25.886Z,5.93
2023-04-23T03:00:54.882Z,5.96
2023-04-23T03:03:26.718Z,5.98
2023-04-23T03:05:55.400Z,5.99
2023-04-23T03:08:23.764Z,6.01
2023-04-23T03:10:51.792Z,6.03
2023-04-23T03:13:19.892Z,6.06
2023-04-23T03:15:48.933Z,6.06
2023-04-23T03:18:17.078Z,6.08
2023-04-23T03:20:47.617Z,6.10
2023-04-23T03:23:16.693Z,6.13
2023-04-23T03:25:45.393Z,6.14
2023-04-23T03:28:13.606Z,6.16
2023-04-23T03:30:42.696Z,6.18
2023-04-23T03:33:12.946Z,6.21
2023-04-23T03:35:41.615Z,6.24
2023-04-23T03:38:13.632Z,6.25
2023-04-23T03:40:42.430Z,6.30
2023-04-23T03:43:20.532Z,6.33
2023-04-23T03:46:11.884Z,6.38
2023-04-23T03:48:41.773Z,6.43
2023-04-23T03:51:14.124Z,6.46
2023-04-23T03:53:49.150Z,6.48
2023-04-23T03:56:34.745Z,6.53
2023-04-23T03:59:15.624Z,6.58
2023-04-23T04:01:44.676Z,6.63
2023-04-23T04:04:12.926Z,6.68
2023-04-23T04:06:41.534Z,6.67
2023-04-23T04:09:09.598Z,6.71
2023-04-23T04:11:37.946Z,6.75
2023-04-23T04:14:06.180Z,6.80
2023-04-23T04:16:34.394Z,6.84
2023-04-23T04:19:03.757Z,6.90
2023-04-23T04:21:33.384Z,6.95
2023-04-23T04:24:11.659Z,6.98
2023-04-23T04:26:40.279Z,7.03
2023-04-23T04:29:17.468Z,7.08
2023-04-23T04:31:48.435Z,7.13
2023-04-23T04:34:18.261Z,7.19
2023-04-23T04:36:46.997Z,7.24
2023-04-23T04:39:15.178Z,7.31
2023-04-23T04:41:43.668Z,7.36
2023-04-23T04:44:11.738Z,7.41
2023-04-23T04:46:40.554Z,7.45
2023-04-23T04:49:12.438Z,7.50
2023-04-23T04:51:41.579Z,7.56
2023-04-23T04:54:09.832Z,7.60
2023-04-23T04:56:37.925Z,7.65
2023-04-23T04:59:06.109Z,7.70
2023-04-23T05:01:34.707Z,7.75
2023-04-23T05:04:03.998Z,7.78
2023-04-23T05:06:32.646Z,7.81
2023-04-23T05:09:00.859Z,7.83
2023-04-23T05:11:30.752Z,7.88
2023-04-23T05:13:59.923Z,7.94
2023-04-23T05:16:28.261Z,7.99
2023-04-23T05:18:56.416Z,8.05
2023-04-23T05:21:24.470Z,8.11
2023-04-23T05:23:52.576Z,8.17
2023-04-23T05:26:20.812Z,8.22
2023-04-23T05:28:49.213Z,8.27
2023-04-23T05:31:17.290Z,8.31
2023-04-23T05:33:50.527Z,8.32
2023-04-23T05:36:19.164Z,8.34
2023-04-23T05:38:48.480Z,8.36
2023-04-23T05:41:16.769Z,8.40
2023-04-23T05:43:53.921Z,8.44
2023-04-23T05:46:22.437Z,8.48
2023-04-23T05:48:50.576Z,8.49
2023-04-23T05:51:19.057Z,8.49
2023-04-23T05:53:47.224Z,8.52
2023-04-23T05:56:15.398Z,8.58
2023-04-23T05:58:43.725Z,8.65
2023-04-23T06:01:12.510Z,8.72
2023-04-23T06:03:45.466Z,8.78
2023-04-23T06:06:14.268Z,8.84
2023-04-23T06:08:42.318Z,8.92
2023-04-23T06:11:11.011Z,8.99
2023-04-23T06:13:43.557Z,9.07
2023-04-23T06:16:12.074Z,9.14
2023-04-23T06:18:40.354Z,9.19
2023-04-23T06:21:09.225Z,9.25
2023-04-23T06:23:37.418Z,9.31
2023-04-23T06:26:05.898Z,9.37
2023-04-23T06:28:34.671Z,9.44
2023-04-23T06:31:22.128Z,9.55
2023-04-23T06:33:50.375Z,9.66
2023-04-23T06:36:18.410Z,9.77
2023-04-23T06:38:49.186Z,9.88
2023-04-23T06:41:17.730Z,9.99
2023-04-23T06:43:46.107Z,10.09
2023-04-23T06:46:32.216Z,10.22
2023-04-23T06:49:00.314Z,10.30
2023-04-23T06:51:28.691Z,10.34
2023-04-23T06:53:56.887Z,10.37
2023-04-23T06:56:26.946Z,10.40
2023-04-23T06:58:55.460Z,10.45
2023-04-23T07:01:23.907Z,10.47
2023-04-23T07:03:54.694Z,10.51
2023-04-23T07:06:23.080Z,10.60
2023-04-23T07:08:51.323Z,10.71
2023-04-23T07:11:19.826Z,10.82
2023-04-23T07:13:48.980Z,10.89
2023-04-23T07:16:18.072Z,10.96
2023-04-23T07:18:47.542Z,11.04
2023-04-23T07:21:16.132Z,11.11
2023-04-23T07:23:44.190Z,11.22
2023-04-23T07:26:12.687Z,11.33
2023-04-23T07:28:40.959Z,11.44
2023-04-23T07:31:09.338Z,11.54
2023-04-23T07:33:37.522Z,11.64
2023-04-23T07:36:05.991Z,11.73
2023-04-23T07:38:34.175Z,11.81
2023-04-23T07:41:02.967Z,11.89
2023-04-23T07:43:31.090Z,11.98
2023-04-23T07:45:59.317Z,12.08
2023-04-23T07:48:27.334Z,12.17
2023-04-23T07:50:55.859Z,12.27
2023-04-23T07:53:24.025Z,12.35
2023-04-23T07:55:52.605Z,12.45
2023-04-23T07:58:20.781Z,12.51
2023-04-23T08:00:48.872Z,12.60
2023-04-23T08:03:17.016Z,12.72
2023-04-23T08:05:45.686Z,12.84
2023-04-23T08:08:14.044Z,12.96
2023-04-23T08:10:42.269Z,13.06
2023-04-23T08:13:11.221Z,13.08
2023-04-23T08:15:39.572Z,13.14
2023-04-23T08:18:07.820Z,13.25
2023-04-23T08:20:38.141Z,13.37
2023-04-23T08:23:07.177Z,13.50
2023-04-23T08:25:35.292Z,13.60
2023-04-23T08:28:03.937Z,13.63
2023-04-23T08:30:32.220Z,13.73
2023-04-23T08:33:00.592Z,13.89
2023-04-23T08:35:29.027Z,13.97
2023-04-23T08:37:57.100Z,14.07
2023-04-23T08:40:30.347Z,14.21
2023-04-23T08:43:02.872Z,14.44
2023-04-23T08:45:31.154Z,14.75
2023-04-23T08:48:02.524Z,15.07
2023-04-23T08:50:31.308Z,15.42
2023-04-23T08:52:59.561Z,15.78
2023-04-23T08:55:27.746Z,16.05
2023-04-23T08:57:58.553Z,16.21
2023-04-23T09:00:26.973Z,16.48
2023-04-23T09:02:56.228Z,16.88
2023-04-23T09:05:24.838Z,17.31
2023-04-23T09:07:54.034Z,17.66
2023-04-23T09:10:22.721Z,17.96
2023-04-23T09:12:51.082Z,18.24
2023-04-23T09:15:19.385Z,18.42
2023-04-23T09:17:48.508Z,18.46
2023-04-23T09:20:17.361Z,18.48
2023-04-23T09:22:48.332Z,18.47
2023-04-23T09:25:21.860Z,18.62
2023-04-23T09:27:51.609Z,18.84
2023-04-23T09:30:20.243Z,19.02
2023-04-23T09:32:49.524Z,19.22
2023-04-23T09:35:20.245Z,19.46
2023-04-23T09:37:52.552Z,19.64
2023-04-23T09:40:25.142Z,19.69
2023-04-23T09:42:56.555Z,19.86
2023-04-23T09:45:27.538Z,20.06
2023-04-23T09:47:57.951Z,20.25
2023-04-23T09:50:38.594Z,20.41
2023-04-23T09:53:08.793Z,20.51
2023-04-23T09:55:39.464Z,20.53
2023-04-23T09:58:12.620Z,20.53
2023-04-23T10:00:41.518Z,20.62
2023-04-23T10:03:11.305Z,20.73
2023-04-23T10:08:14.078Z,20.97
2023-04-23T10:10:57.605Z,21.10
2023-04-23T10:13:32.373Z,21.25
2023-04-23T10:16:14.052Z,21.42
2023-04-23T10:18:47.845Z,21.58
2023-04-23T10:21:17.694Z,21.59
2023-04-23T10:23:48.497Z,21.32
2023-04-23T10:26:17.419Z,21.07
2023-04-23T10:28:49.094Z,21.00
2023-04-23T10:31:19.890Z,20.82
2023-04-23T10:36:25.924Z,20.66
2023-04-23T10:38:59.024Z,20.63
2023-04-23T10:41:35.953Z,20.63
2023-04-23T10:44:05.643Z,20.65
2023-04-23T10:46:37.144Z,20.77
2023-04-23T10:49:17.081Z,20.84
2023-04-23T10:54:19.983Z,21.26
2023-04-23T10:56:59.304Z,21.24
2023-04-23T10:59:32.180Z,21.24
2023-04-23T11:02:10.758Z,21.27
2023-04-23T11:04:45.113Z,21.19
2023-04-23T11:07:14.132Z,21.06
2023-04-23T11:09:49.462Z,20.97
2023-04-23T11:12:40.034Z,20.91
2023-04-23T11:15:16.148Z,20.91
2023-04-23T11:17:44.269Z,21.02
2023-04-23T11:20:19.669Z,21.04
2023-04-23T11:22:50.352Z,20.91
2023-04-23T11:25:25.318Z,20.93
2023-04-23T11:27:55.870Z,20.90
2023-04-23T11:30:30.880Z,20.82
2023-04-23T11:33:01.536Z,20.73
2023-04-23T11:35:33.584Z,20.72
2023-04-23T11:38:08.324Z,20.55
2023-04-23T11:40:37.443Z,20.42
2023-04-23T11:43:05.587Z,20.28
2023-04-23T11:45:33.874Z,20.13
2023-04-23T11:48:02.062Z,19.93
2023-04-23T11:50:33.719Z,19.76
2023-04-23T11:53:07.693Z,19.56
2023-04-23T11:55:35.871Z,19.40
2023-04-23T11:58:04.444Z,19.31
2023-04-23T12:00:32.524Z,19.22
2023-04-23T12:03:03.539Z,19.17
2023-04-23T12:05:39.299Z,19.19
2023-04-23T12:08:16.750Z,19.31
2023-04-23T12:10:52.988Z,19.43
2023-04-23T12:13:24.307Z,19.49
2023-04-23T12:15:56.672Z,19.43
2023-04-23T12:18:44.197Z,19.43
2023-04-23T12:21:13.620Z,19.45
2023-04-23T12:23:44.784Z,19.42
2023-04-23T12:26:15.783Z,19.36
2023-04-23T12:28:58.123Z,19.40
2023-04-23T12:31:30.624Z,19.48
2023-04-23T12:34:02.347Z,19.47
2023-04-23T12:36:40.930Z,19.39
2023-04-23T12:39:31.314Z,19.34
2023-04-23T12:42:03.172Z,19.25
2023-04-23T12:44:36.129Z,19.22
2023-04-23T12:47:05.976Z,19.22
2023-04-23T12:49:36.086Z,19.21
2023-04-23T12:52:07.920Z,19.23
2023-04-23T12:54:38.320Z,19.31
2023-04-23T12:57:08.277Z,19.36
2023-04-23T12:59:36.419Z,19.39
2023-04-23T13:02:06.953Z,19.39
2023-04-23T13:04:36.759Z,19.44
2023-04-23T13:07:05.031Z,19.50
2023-04-23T13:09:35.967Z,19.55
2023-04-23T13:12:04.561Z,19.52
2023-04-23T13:14:32.782Z,19.52
2023-04-23T13:17:01.212Z,19.63
2023-04-23T13:19:29.657Z,19.81
2023-04-23T13:21:57.684Z,20.05
2023-04-23T13:24:25.719Z,20.29
2023-04-23T13:26:53.991Z,20.49
2023-04-23T13:29:22.183Z,20.71
2023-04-23T13:31:51.437Z,20.91
2023-04-23T13:34:19.770Z,21.06
2023-04-23T13:36:48.041Z,21.19
2023-04-23T13:39:16.211Z,21.25
2023-04-23T13:41:46.494Z,21.32
2023-04-23T13:44:15.793Z,21.39
2023-04-23T13:46:43.915Z,21.43
2023-04-23T13:49:12.295Z,21.41
2023-04-23T13:51:40.467Z,21.34
2023-04-23T13:54:08.413Z,21.22
2023-04-23T13:56:37.226Z,21.12
2023-04-23T13:59:18.797Z,21.02
2023-04-23T14:01:51.496Z,20.90
2023-04-23T14:04:24.557Z,20.81
2023-04-23T14:06:53.078Z,20.64
2023-04-23T14:09:22.654Z,20.36
2023-04-23T14:11:50.921Z,20.14
2023-04-23T14:14:19.293Z,20.04
2023-04-23T14:16:47.407Z,19.92
2023-04-23T14:19:15.684Z,19.87
2023-04-23T14:21:44.230Z,19.88
2023-04-23T14:24:39.170Z,19.91
2023-04-23T14:27:07.137Z,19.92
2023-04-23T14:29:41.325Z,19.89
2023-04-23T14:32:09.645Z,19.81
2023-04-23T14:34:37.697Z,19.66
2023-04-23T14:37:06.220Z,19.41
2023-04-23T14:39:34.985Z,19.21
2023-04-23T14:42:03.655Z,18.99
2023-04-23T14:44:31.834Z,18.88
2023-04-23T14:46:59.829Z,18.75
2023-04-23T14:49:27.894Z,18.65
2023-04-23T14:51:57.841Z,18.56
2023-04-23T14:54:26.173Z,18.48
2023-04-23T14:56:54.445Z,18.50
2023-04-23T14:59:23.748Z,18.54
2023-04-23T15:01:51.986Z,18.55
2023-04-23T15:04:20.306Z,18.55
2023-04-23T15:06:48.486Z,18.49
2023-04-23T15:09:17.056Z,18.44
2023-04-23T15:11:45.641Z,18.42
2023-04-23T15:14:20.790Z,18.37
2023-04-23T15:16:50.025Z,18.17
2023-04-23T15:19:19.183Z,18.00
2023-04-23T15:21:48.120Z,17.87
2023-04-23T15:24:17.034Z,17.79
2023-04-23T15:26:48.815Z,17.70
2023-04-23T15:29:17.003Z,17.66
2023-04-23T15:31:45.190Z,17.62
2023-04-23T15:34:13.442Z,17.60
2023-04-23T15:36:41.632Z,17.58
2023-04-23T15:39:09.802Z,17.58
2023-04-23T15:41:40.513Z,17.58
2023-04-23T15:44:13.285Z,17.57
2023-04-23T15:46:41.513Z,17.52
2023-04-23T15:49:09.662Z,17.46
2023-04-23T15:51:37.796Z,17.43
2023-04-23T15:54:08.705Z,17.43
2023-04-23T15:56:37.292Z,17.43
2023-04-23T15:59:06.257Z,17.43
2023-04-23T16:01:34.565Z,17.41
2023-04-23T16:06:34.630Z,17.11
2023-04-23T16:09:06.890Z,16.87
2023-04-23T16:11:39.101Z,16.63
2023-04-23T16:14:09.593Z,16.42
2023-04-23T16:16:38.881Z,16.23
2023-04-23T16:19:07.202Z,16.06
2023-04-23T16:21:35.702Z,15.89
2023-04-23T16:24:04.691Z,15.74
2023-04-23T16:26:32.646Z,15.64
2023-04-23T16:31:32.111Z,15.53
2023-04-23T16:34:00.573Z,15.46
2023-04-23T16:36:28.871Z,15.41
2023-04-23T16:38:57.325Z,15.36
2023-04-23T16:41:25.594Z,15.31
2023-04-23T16:43:53.878Z,15.24
2023-04-23T16:46:22.129Z,15.17
2023-04-23T16:48:50.845Z,15.10
2023-04-23T16:51:18.925Z,15.01
2023-04-23T16:53:46.990Z,14.92
2023-04-23T16:56:15.203Z,14.84
2023-04-23T16:58:43.665Z,14.75
2023-04-23T17:01:12.048Z,14.66
2023-04-23T17:03:40.810Z,14.57
2023-04-23T17:06:11.268Z,14.51
2023-04-23T17:08:39.918Z,14.42
2023-04-23T17:11:08.391Z,14.31
2023-04-23T17:13:36.472Z,14.21
2023-04-23T17:16:04.457Z,14.08
2023-04-23T17:18:32.605Z,13.95
2023-04-23T17:21:00.883Z,13.83
2023-04-23T17:23:29.005Z,13.69
2023-04-23T17:25:57.130Z,13.57
2023-04-23T17:28:25.509Z,13.45
2023-04-23T17:30:55.881Z,13.34
2023-04-23T17:33:24.536Z,13.23
2023-04-23T17:35:53.821Z,13.12
2023-04-23T17:38:22.446Z,13.01
2023-04-23T17:40:52.583Z,12.91
2023-04-23T17:43:21.670Z,12.82
2023-04-23T17:45:49.981Z,12.74
2023-04-23T17:48:18.891Z,12.66
2023-04-23T17:50:47.994Z,12.59
2023-04-23T17:53:16.525Z,12.53
2023-04-23T17:55:46.088Z,12.46
2023-04-23T17:58:14.289Z,12.41
2023-04-23T18:00:43.350Z,12.35
2023-04-23T18:03:16.481Z,12.30
2023-04-23T18:05:45.440Z,12.24
2023-04-23T18:08:16.384Z,12.16
2023-04-23T18:10:46.086Z,12.09
2023-04-23T18:13:14.765Z,12.02
2023-04-23T18:15:43.046Z,11.97
2023-04-23T18:18:11.484Z,11.94
2023-04-23T18:20:40.410Z,11.91
2023-04-23T18:23:09.818Z,11.86
2023-04-23T18:25:37.801Z,11.81
2023-04-23T18:28:05.956Z,11.77
2023-04-23T18:30:36.818Z,11.74
2023-04-23T18:33:21.517Z,11.71
2023-04-23T18:35:49.737Z,11.67
2023-04-23T18:38:37.577Z,11.63
2023-04-23T18:41:05.952Z,11.60
2023-04-23T18:43:34.736Z,11.57
2023-04-23T18:46:03.180Z,11.54
2023-04-23T18:48:34.382Z,11.48
2023-04-23T18:51:13.516Z,11.42
2023-04-23T18:53:41.397Z,11.39
2023-04-23T18:56:09.644Z,11.36
2023-04-23T18:58:37.716Z,11.33
2023-04-23T19:01:06.172Z,11.31
2023-04-23T19:03:34.977Z,11.29
2023-04-23T19:06:07.674Z,11.24
2023-04-23T19:08:36.250Z,11.22
2023-04-23T19:11:05.056Z,11.20
2023-04-23T19:13:33.161Z,11.17
2023-04-23T19:16:01.514Z,11.15
2023-04-23T19:18:29.766Z,11.13
2023-04-23T19:20:58.502Z,11.08
2023-04-23T19:23:26.788Z,11.01
2023-04-23T19:25:55.514Z,10.95
2023-04-23T19:28:27.379Z,10.90
2023-04-23T19:30:55.792Z,10.88
2023-04-23T19:33:24.060Z,10.85
2023-04-23T19:35:55.357Z,10.82
2023-04-23T19:38:23.426Z,10.77
2023-04-23T19:40:51.832Z,10.74
2023-04-23T19:43:20.211Z,10.71
2023-04-23T19:45:48.163Z,10.69
2023-04-23T19:48:16.354Z,10.66
2023-04-23T19:50:44.434Z,10.62
2023-04-23T19:53:12.890Z,10.60
2023-04-23T19:55:41.350Z,10.58
2023-04-23T19:58:09.617Z,10.57
2023-04-23T20:00:40.330Z,10.55
2023-04-23T20:03:09.790Z,10.53
2023-04-23T20:05:38.603Z,10.52
2023-04-23T20:08:11.200Z,10.51
2023-04-23T20:10:39.253Z,10.51
2023-04-23T20:13:07.831Z,10.51
2023-04-23T20:15:36.838Z,10.51
2023-04-23T20:18:05.739Z,10.51
2023-04-23T20:20:34.147Z,10.53
2023-04-23T20:23:02.370Z,10.54
2023-04-23T20:25:32.190Z,10.53
2023-04-23T20:28:08.344Z,10.53
2023-04-23T20:30:37.232Z,10.53
2023-04-23T20:33:06.163Z,10.56
2023-04-23T20:35:36.345Z,10.56
2023-04-23T20:38:04.523Z,10.56
2023-04-23T20:40:34.642Z,10.58
2023-04-23T20:43:04.694Z,10.59
2023-04-23T20:45:34.793Z,10.62
2023-04-23T20:48:03.768Z,10.65
2023-04-23T20:50:32.856Z,10.68
2023-04-23T20:53:01.093Z,10.71
2023-04-23T20:55:29.193Z,10.72
2023-04-23T20:57:57.508Z,10.74
2023-04-23T21:00:27.903Z,10.75
2023-04-23T21:02:56.103Z,10.76
2023-04-23T21:05:24.309Z,10.76
2023-04-23T21:07:53.079Z,10.77
2023-04-23T21:10:21.355Z,10.77
2023-04-23T21:12:49.646Z,10.79
2023-04-23T21:15:18.606Z,10.80
2023-04-23T21:17:46.589Z,10.81
2023-04-23T21:20:14.815Z,10.82
2023-04-23T21:22:43.044Z,10.82
2023-04-23T21:25:11.112Z,10.83
2023-04-23T21:27:39.689Z,10.85
2023-04-23T21:30:21.277Z,10.86
2023-04-23T21:32:52.163Z,10.87
2023-04-23T21:35:20.640Z,10.88
2023-04-23T21:37:48.775Z,10.89
2023-04-23T21:40:16.853Z,10.91
2023-04-23T21:42:46.374Z,10.91
2023-04-23T21:45:14.618Z,10.90
2023-04-23T21:47:42.871Z,10.90
2023-04-23T21:50:11.600Z,10.91
2023-04-23T21:52:43.144Z,10.92
2023-04-23T21:55:13.373Z,10.93
2023-04-23T21:57:41.487Z,10.95
2023-04-23T22:00:13.832Z,10.95
2023-04-23T22:02:48.257Z,10.93
2023-04-23T22:05:21.314Z,10.90
2023-04-23T22:07:53.604Z,10.85
2023-04-23T22:10:23.647Z,10.79
2023-04-23T22:12:52.128Z,10.73
2023-04-23T22:15:20.765Z,10.67
2023-04-23T22:17:50.763Z,10.62
2023-04-23T22:20:19.476Z,10.56
2023-04-23T22:22:47.544Z,10.50
2023-04-23T22:25:17.561Z,10.42
2023-04-23T22:27:45.677Z,10.39
2023-04-23T22:30:14.523Z,10.36
2023-04-23T22:32:42.738Z,10.33
2023-04-23T22:35:11.046Z,10.32
2023-04-23T22:37:39.767Z,10.29
2023-04-23T22:40:09.657Z,10.27
2023-04-23T22:42:37.876Z,10.24
2023-04-23T22:45:07.200Z,10.22
2023-04-23T22:47:35.375Z,10.18
2023-04-23T22:50:04.114Z,10.12
2023-04-23T22:52:32.820Z,10.06
2023-04-23T22:55:01.084Z,9.99
2023-04-23T22:57:29.563Z,9.93
2023-04-23T22:59:57.844Z,9.85
2023-04-23T23:02:26.948Z,9.78
2023-04-23T23:04:56.251Z,9.67
2023-04-23T23:07:24.308Z,9.59
2023-04-23T23:09:52.388Z,9.49
2023-04-23T23:12:20.522Z,9.43
2023-04-23T23:14:48.483Z,9.37
2023-04-23T23:17:16.800Z,9.31
2023-04-23T23:19:45.092Z,9.24
2023-04-23T23:22:13.664Z,9.17
2023-04-23T23:24:41.699Z,9.11
2023-04-23T23:27:09.908Z,9.05
2023-04-23T23:29:38.128Z,9.00
2023-04-23T23:32:06.256Z,8.96
2023-04-23T23:34:34.536Z,8.90
2023-04-23T23:37:02.708Z,8.83
2023-04-23T23:39:30.882Z,8.77
2023-04-23T23:41:59.852Z,8.69
2023-04-23T23:44:28.156Z,8.60
2023-04-23T23:46:56.413Z,8.51
2023-04-23T23:49:24.722Z,8.42
2023-04-23T23:51:52.881Z,8.32
2023-04-23T23:54:20.953Z,8.21
2023-04-23T23:56:48.981Z,8.09
2023-04-23T23:59:17.418Z,7.99
